Aviation Digital Data Service (ADDS)

Output produced by METARs form (1341 UTC 08 May 2021)
found at http://aviationweather.gov/metar/data/
 
KUTS 081301Z AUTO 18008KT 10SM BKN013 21/19 A3001 RMK AO2 T02110194
KUTS 081253Z AUTO 18009KT 10SM SCT013 21/19 A3001 RMK AO2 SLP158 T02060194
KUTS 081308Z 0813/0912 18010KT P6SM FEW025 
     TEMPO 0813/0815 BKN013 
     FM081500 18011G21KT P6SM SCT035 
     FM081800 18017G25KT P6SM SCT035 SCT090 
     FM090600 17014KT P6SM BKN025